createdAt,value
2022-12-12T00:03:28.665Z,99643.59
2022-12-12T00:08:32.978Z,99640.19
2022-12-12T00:13:35.917Z,99641.50
2022-12-12T00:18:38.847Z,99640.50
2022-12-12T00:23:43.099Z,99641.50
2022-12-12T00:28:45.929Z,99636.97
2022-12-12T00:33:50.123Z,99633.00
2022-12-12T00:38:54.428Z,99640.19
2022-12-12T00:43:57.176Z,99640.31
2022-12-12T00:49:00.020Z,99638.75
2022-12-12T00:54:04.333Z,99641.56
2022-12-12T00:59:07.214Z,99651.72
2022-12-12T01:04:10.069Z,99654.50
2022-12-12T01:09:14.948Z,99665.91
2022-12-12T01:14:17.883Z,99666.84
2022-12-12T01:19:20.659Z,99662.75
2022-12-12T01:24:24.839Z,99667.06
2022-12-12T01:29:27.712Z,99681.56
2022-12-12T01:34:30.698Z,99681.94
2022-12-12T01:39:34.796Z,99677.97
2022-12-12T01:44:39.529Z,99679.44
2022-12-12T01:49:42.587Z,99670.81
2022-12-12T01:54:48.293Z,99680.22
2022-12-12T01:59:51.025Z,99681.53
2022-12-12T02:04:53.795Z,99684.47
2022-12-12T02:09:57.957Z,99682.03
2022-12-12T02:15:00.742Z,99683.38
2022-12-12T02:20:25.316Z,99676.72
2022-12-12T02:25:56.145Z,99678.06
2022-12-12T02:31:11.412Z,99687.34
2022-12-12T02:36:16.028Z,99678.09
2022-12-12T02:41:23.569Z,99687.09
2022-12-12T02:46:31.235Z,99690.13
2022-12-12T02:51:34.308Z,99684.91
2022-12-12T02:56:47.895Z,99680.19
2022-12-12T03:02:13.355Z,99682.25
2022-12-12T03:07:37.119Z,99674.97
2022-12-12T03:12:42.248Z,99677.38
2022-12-12T03:17:49.538Z,99690.91
2022-12-12T03:22:54.078Z,99679.97
2022-12-12T03:27:59.818Z,99687.97
2022-12-12T03:33:05.399Z,99694.19
2022-12-12T03:38:10.225Z,99691.03
2022-12-12T03:43:14.444Z,99680.56
2022-12-12T03:48:20.126Z,99685.31
2022-12-12T03:53:25.056Z,99671.47
2022-12-12T03:58:28.781Z,99680.91
2022-12-12T04:03:39.490Z,99681.13
2022-12-12T04:09:02.410Z,99683.22
2022-12-12T04:14:10.364Z,99690.63
2022-12-12T04:19:35.870Z,99706.78
2022-12-12T04:24:42.310Z,99702.41
2022-12-12T04:29:47.518Z,99702.53
2022-12-12T04:34:53.269Z,99701.66
2022-12-12T04:39:57.717Z,99711.50
2022-12-12T04:45:04.687Z,99711.63
2022-12-12T04:50:10.590Z,99704.72
2022-12-12T04:55:14.959Z,99702.88
2022-12-12T05:00:20.244Z,99711.25
2022-12-12T05:05:27.408Z,99712.94
2022-12-12T05:10:30.186Z,99707.72
2022-12-12T05:15:33.769Z,99706.88
2022-12-12T05:20:38.304Z,99709.81
2022-12-12T05:25:41.170Z,99713.31
2022-12-12T05:30:43.950Z,99724.00
2022-12-12T05:35:48.105Z,99718.66
2022-12-12T05:40:50.934Z,99725.25
2022-12-12T05:45:53.822Z,99731.31
2022-12-12T05:50:58.061Z,99722.78
2022-12-12T05:56:00.849Z,99736.16
2022-12-12T06:01:04.379Z,99744.88
2022-12-12T06:06:08.751Z,99748.66
2022-12-12T06:11:11.517Z,99744.28
2022-12-12T06:16:16.176Z,99742.59
2022-12-12T06:21:20.583Z,99741.72
2022-12-12T06:26:23.495Z,99741.97
2022-12-12T06:31:26.270Z,99749.03
2022-12-12T06:36:30.508Z,99752.53
2022-12-12T06:41:33.383Z,99750.94
2022-12-12T06:46:36.382Z,99758.94
2022-12-12T06:51:44.131Z,99760.91
2022-12-12T06:56:48.729Z,99764.53
2022-12-12T07:01:51.674Z,99762.00
2022-12-12T07:06:56.028Z,99776.31
2022-12-12T07:11:58.845Z,99776.56
2022-12-12T07:17:01.552Z,99768.63
2022-12-12T07:22:10.182Z,99775.81
2022-12-12T07:27:17.039Z,99791.09
2022-12-12T07:32:24.193Z,99783.22
2022-12-12T07:37:28.295Z,99793.03
2022-12-12T07:42:31.120Z,99803.72
2022-12-12T07:47:33.895Z,99803.00
2022-12-12T07:52:38.078Z,99806.66
2022-12-12T07:57:41.368Z,99811.13
2022-12-12T08:02:46.008Z,99838.66
2022-12-12T08:07:50.161Z,99853.03
2022-12-12T08:12:52.988Z,99842.44
2022-12-12T08:17:55.766Z,99837.66
2022-12-12T08:23:00.013Z,99836.06
2022-12-12T08:28:02.799Z,99825.56
2022-12-12T08:33:08.199Z,99835.78
2022-12-12T08:38:12.513Z,99827.03
2022-12-12T08:43:15.323Z,99832.13
2022-12-12T08:48:18.526Z,99833.13
2022-12-12T08:53:22.683Z,99839.72
2022-12-12T08:58:26.572Z,99840.06
2022-12-12T09:03:29.901Z,99852.91
2022-12-12T09:08:34.521Z,99866.94
2022-12-12T09:13:37.742Z,99840.22
2022-12-12T09:18:47.802Z,99857.41
2022-12-12T09:23:52.679Z,99861.00
2022-12-12T09:28:55.458Z,99873.56
2022-12-12T09:33:58.241Z,99872.84
2022-12-12T09:39:02.370Z,99879.44
2022-12-12T09:44:07.258Z,99872.75
2022-12-12T09:49:15.362Z,99884.56
2022-12-12T09:54:21.601Z,99887.75
2022-12-12T09:59:28.462Z,99881.06
2022-12-12T10:04:36.337Z,99887.75
2022-12-12T10:09:47.422Z,99883.50
2022-12-12T10:14:52.171Z,99886.75
2022-12-12T10:19:55.964Z,99884.47
2022-12-12T10:25:07.559Z,99886.66
2022-12-12T10:30:16.698Z,99885.34
2022-12-12T10:35:26.479Z,99889.25
2022-12-12T10:40:45.513Z,99891.94
2022-12-12T10:45:54.082Z,99894.22
2022-12-12T10:50:58.791Z,99896.56
2022-12-12T10:56:05.123Z,99887.28
2022-12-12T11:01:12.893Z,99880.09
2022-12-12T11:06:16.462Z,99881.69
2022-12-12T11:11:21.516Z,99889.09
2022-12-12T11:16:25.737Z,99888.88
2022-12-12T11:21:29.212Z,99896.78
2022-12-12T11:26:38.991Z,99886.66
2022-12-12T11:31:41.805Z,99895.19
2022-12-12T11:36:44.584Z,99891.97
2022-12-12T11:41:59.768Z,99890.66
2022-12-12T11:47:24.914Z,99895.88
2022-12-12T11:52:28.553Z,99899.19
2022-12-12T11:57:44.699Z,99896.22
2022-12-12T12:03:19.955Z,99890.59
2022-12-12T12:08:30.731Z,99891.31
2022-12-12T12:13:44.774Z,99896.47
2022-12-12T12:18:54.819Z,99891.94
2022-12-12T12:24:04.467Z,99895.47
2022-12-12T12:29:17.354Z,99899.00
2022-12-12T12:34:22.960Z,99900.84
2022-12-12T12:39:35.961Z,99898.28
2022-12-12T12:44:45.512Z,99906.56
2022-12-12T12:49:50.617Z,99908.41
2022-12-12T12:54:53.525Z,99910.50
2022-12-12T12:59:58.873Z,99912.69
2022-12-12T13:05:06.936Z,99900.66
2022-12-12T13:10:17.050Z,99901.00
2022-12-12T13:15:22.943Z,99907.44
2022-12-12T13:20:26.355Z,99917.19
2022-12-12T13:25:34.255Z,99916.09
2022-12-12T13:30:44.624Z,99928.41
2022-12-12T13:35:49.126Z,99919.78
2022-12-12T13:40:56.849Z,99927.69
2022-12-12T13:46:01.480Z,99933.28
2022-12-12T13:51:36.273Z,99939.47
2022-12-12T13:56:39.360Z,99945.94
2022-12-12T14:01:43.665Z,99947.06
2022-12-12T14:06:46.471Z,99944.50
2022-12-12T14:11:49.319Z,99949.88
2022-12-12T14:16:55.009Z,99960.34
2022-12-12T14:21:58.037Z,99976.53
2022-12-12T14:27:00.982Z,99977.53
2022-12-12T14:32:17.673Z,99974.22
2022-12-12T14:37:34.817Z,99969.38
2022-12-12T14:43:19.938Z,99973.63
2022-12-12T14:48:18.165Z,99985.44
2022-12-12T14:53:22.942Z,99992.78
2022-12-12T14:58:27.771Z,99986.03
2022-12-12T15:03:33.429Z,99984.84
2022-12-12T15:08:36.527Z,99995.56
2022-12-12T15:13:39.364Z,99998.59
2022-12-12T15:18:43.580Z,100002.63
2022-12-12T15:23:46.516Z,100007.13
2022-12-12T15:28:49.304Z,100005.19
2022-12-12T15:33:53.861Z,100012.38
2022-12-12T15:39:13.681Z,100011.03
2022-12-12T15:44:18.304Z,100018.72
2022-12-12T15:49:39.753Z,100023.94
2022-12-12T15:54:49.854Z,100029.28
2022-12-12T15:59:54.533Z,100031.63
2022-12-12T16:05:07.280Z,100040.84
2022-12-12T16:10:23.488Z,100036.22
2022-12-12T16:15:34.911Z,100026.72
2022-12-12T16:20:43.843Z,100024.75
2022-12-12T16:25:46.678Z,100022.44
2022-12-12T16:30:52.711Z,100027.53
2022-12-12T16:35:57.401Z,100028.66
2022-12-12T16:41:00.745Z,100026.91
2022-12-12T16:46:03.836Z,100028.75
2022-12-12T16:51:08.625Z,100033.91
2022-12-12T16:56:11.632Z,100042.56
2022-12-12T17:01:17.021Z,100041.84
2022-12-12T17:06:21.271Z,100041.69
2022-12-12T17:11:24.088Z,100041.97
2022-12-12T17:16:28.069Z,100051.22
2022-12-12T17:21:32.776Z,100049.75
2022-12-12T17:26:36.246Z,100037.44
2022-12-12T17:31:39.424Z,100045.09
2022-12-12T17:36:43.583Z,100039.88
2022-12-12T17:41:46.417Z,100045.84
2022-12-12T17:46:49.327Z,100042.78
2022-12-12T17:51:56.253Z,100047.16
2022-12-12T17:56:59.022Z,100037.03
2022-12-12T18:02:01.820Z,100035.19
2022-12-12T18:07:06.216Z,100039.94
2022-12-12T18:12:09.693Z,100048.88
2022-12-12T18:17:12.457Z,100051.06
2022-12-12T18:22:17.009Z,100050.34
2022-12-12T18:27:19.943Z,100048.78
2022-12-12T18:32:22.981Z,100057.81
2022-12-12T18:37:27.150Z,100064.28
2022-12-12T18:42:30.009Z,100069.75
2022-12-12T18:47:33.438Z,100065.63
2022-12-12T18:52:37.687Z,100071.72
2022-12-12T18:57:40.544Z,100067.31
2022-12-12T19:02:43.344Z,100075.72
2022-12-12T19:07:47.903Z,100070.97
2022-12-12T19:12:50.726Z,100067.16
2022-12-12T19:17:55.604Z,100073.16
2022-12-12T19:22:59.923Z,100073.28
2022-12-12T19:28:02.990Z,100066.09
2022-12-12T19:33:06.100Z,100081.47
2022-12-12T19:38:10.392Z,100089.50
2022-12-12T19:43:13.312Z,100096.59
2022-12-12T19:48:16.167Z,100109.16
2022-12-12T19:53:20.504Z,100105.34
2022-12-12T19:58:23.744Z,100098.41
2022-12-12T20:03:26.687Z,100091.22
2022-12-12T20:08:31.032Z,100082.53
2022-12-12T20:13:34.088Z,100073.41
2022-12-12T20:18:36.969Z,100071.94
2022-12-12T20:23:46.896Z,100077.91
2022-12-12T20:28:50.261Z,100084.16
2022-12-12T20:33:54.940Z,100091.31
2022-12-12T20:38:59.836Z,100082.66
2022-12-12T20:44:02.953Z,100085.47
2022-12-12T20:49:09.200Z,100084.38
2022-12-12T20:54:14.653Z,100093.41
2022-12-12T20:59:17.384Z,100083.38
2022-12-12T21:04:20.761Z,100083.53
2022-12-12T21:09:26.851Z,100088.03
2022-12-12T21:14:30.957Z,100084.38
2022-12-12T21:19:33.970Z,100092.81
2022-12-12T21:24:38.598Z,100093.66
2022-12-12T21:29:41.550Z,100086.22
2022-12-12T21:34:44.344Z,100082.53
2022-12-12T21:39:50.714Z,100084.50
2022-12-12T21:44:53.696Z,100088.03
2022-12-12T21:49:56.441Z,100070.97
2022-12-12T21:55:00.647Z,100093.41
2022-12-12T22:00:04.346Z,100088.28
2022-12-12T22:05:15.816Z,100089.88
2022-12-12T22:10:20.423Z,100093.41
2022-12-12T22:15:23.468Z,100087.69
2022-12-12T22:20:26.308Z,100085.84
2022-12-12T22:25:30.515Z,100084.63
2022-12-12T22:30:33.458Z,100076.44
2022-12-12T22:35:36.261Z,100080.00
2022-12-12T22:40:40.495Z,100070.00
2022-12-12T22:45:43.273Z,100080.34
2022-12-12T22:50:46.164Z,100072.81
2022-12-12T22:55:50.391Z,100066.47
2022-12-12T23:00:53.622Z,100061.94
2022-12-12T23:06:03.137Z,100064.41
2022-12-12T23:11:08.877Z,100051.47
2022-12-12T23:16:13.165Z,100055.03
2022-12-12T23:21:17.850Z,100062.22
2022-12-12T23:26:23.402Z,100055.75
2022-12-12T23:31:27.686Z,100054.03
2022-12-12T23:36:30.556Z,100043.78
2022-12-12T23:41:34.927Z,100045.41
2022-12-12T23:46:37.694Z,100045.13
2022-12-12T23:51:42.058Z,100050.22
2022-12-12T23:56:46.357Z,100041.47
